Delta Virtual Airport Information Service

Melbourne Airport

ICAO: YMML Country: Australia
Latitude: -37.6733 Longitude: 144.843
Latest Arrival : QFA1010 (YMHB-YMML) Latest Departure : QFA404 (YMML-YSSY)


WX CaptureLIVE
Data provided by noaa.gov | Fetched at 18:53:49

METAR : YMML 172230Z 02029KT 9999 FEW019 SCT110 BKN170 12/08 Q1007

TAF : YMML 172230Z 02029KT 9999 FEW019 SCT110 BKN170 12/08 Q1007


Runway Data for YMML
Data provided by openaviationdata.com

Runway ID Mag Var Hdg Length Elevation Surface ILS Freq ILS Id ILS Slope
9 11 83° 7490 ft 394 ft Asphalt -- -- --
16 11 160° 12014 ft 394 ft Asphalt 109.7 IMS 3
27 11 263° 7490 ft 394 ft Asphalt 109.3 IMW 3
34 11 340° 12014 ft 394 ft Asphalt -- -- --

Melbourne Airport, Australia
Use only for reference purposes



Not for navigational purposes.